sensor_id;sensor_type;location;lat;lon;timestamp;temperature;humidity
13093;DHT22;6612;49.568;11.000;2024-03-22T00:01:47;10.70;73.60
13093;DHT22;6612;49.568;11.000;2024-03-22T00:04:14;10.60;73.50
13093;DHT22;6612;49.568;11.000;2024-03-22T00:06:42;10.60;73.30
13093;DHT22;6612;49.568;11.000;2024-03-22T00:09:08;10.60;73.20
13093;DHT22;6612;49.568;11.000;2024-03-22T00:11:36;10.50;73.10
13093;DHT22;6612;49.568;11.000;2024-03-22T00:14:03;10.50;73.00
13093;DHT22;6612;49.568;11.000;2024-03-22T00:16:30;10.50;73.00
13093;DHT22;6612;49.568;11.000;2024-03-22T00:18:57;10.40;72.80
13093;DHT22;6612;49.568;11.000;2024-03-22T00:21:25;10.40;72.80
13093;DHT22;6612;49.568;11.000;2024-03-22T00:23:51;10.40;72.70
13093;DHT22;6612;49.568;11.000;2024-03-22T00:26:18;10.30;72.50
13093;DHT22;6612;49.568;11.000;2024-03-22T00:28:45;10.30;72.50
13093;DHT22;6612;49.568;11.000;2024-03-22T00:31:12;10.30;72.50
13093;DHT22;6612;49.568;11.000;2024-03-22T00:33:38;10.20;72.40
13093;DHT22;6612;49.568;11.000;2024-03-22T00:36:08;10.20;72.40
13093;DHT22;6612;49.568;11.000;2024-03-22T00:38:34;10.10;72.20
13093;DHT22;6612;49.568;11.000;2024-03-22T00:41:01;10.10;72.10
13093;DHT22;6612;49.568;11.000;2024-03-22T00:43:28;10.00;72.10
13093;DHT22;6612;49.568;11.000;2024-03-22T00:45:55;10.00;72.00
13093;DHT22;6612;49.568;11.000;2024-03-22T00:48:21;10.00;72.00
13093;DHT22;6612;49.568;11.000;2024-03-22T00:50:49;9.90;73.00
13093;DHT22;6612;49.568;11.000;2024-03-22T00:53:16;9.90;73.00
13093;DHT22;6612;49.568;11.000;2024-03-22T00:55:43;9.80;72.90
13093;DHT22;6612;49.568;11.000;2024-03-22T00:58:10;9.80;72.80
13093;DHT22;6612;49.568;11.000;2024-03-22T01:00:37;9.70;72.70
13093;DHT22;6612;49.568;11.000;2024-03-22T01:03:04;9.70;72.60
13093;DHT22;6612;49.568;11.000;2024-03-22T01:05:31;9.70;72.60
13093;DHT22;6612;49.568;11.000;2024-03-22T01:07:57;9.60;72.40
13093;DHT22;6612;49.568;11.000;2024-03-22T01:10:26;9.50;72.30
13093;DHT22;6612;49.568;11.000;2024-03-22T01:12:53;9.60;72.30
13093;DHT22;6612;49.568;11.000;2024-03-22T01:15:20;9.50;72.30
13093;DHT22;6612;49.568;11.000;2024-03-22T01:17:46;9.50;72.20
13093;DHT22;6612;49.568;11.000;2024-03-22T01:20:13;9.40;72.20
13093;DHT22;6612;49.568;11.000;2024-03-22T01:22:39;9.40;72.10
13093;DHT22;6612;49.568;11.000;2024-03-22T01:25:07;9.40;72.10
13093;DHT22;6612;49.568;11.000;2024-03-22T01:27:36;9.30;72.10
13093;DHT22;6612;49.568;11.000;2024-03-22T01:30:05;9.30;72.00
13093;DHT22;6612;49.568;11.000;2024-03-22T01:32:31;9.20;71.90
13093;DHT22;6612;49.568;11.000;2024-03-22T01:34:58;9.20;71.90
13093;DHT22;6612;49.568;11.000;2024-03-22T01:37:24;9.20;72.00
13093;DHT22;6612;49.568;11.000;2024-03-22T01:39:51;9.10;71.90
13093;DHT22;6612;49.568;11.000;2024-03-22T01:42:18;9.10;71.90
13093;DHT22;6612;49.568;11.000;2024-03-22T01:44:48;9.00;71.90
13093;DHT22;6612;49.568;11.000;2024-03-22T01:47:15;9.00;71.90
13093;DHT22;6612;49.568;11.000;2024-03-22T01:49:42;9.00;71.90
13093;DHT22;6612;49.568;11.000;2024-03-22T01:52:09;8.90;71.80
13093;DHT22;6612;49.568;11.000;2024-03-22T01:54:36;8.90;71.90
13093;DHT22;6612;49.568;11.000;2024-03-22T01:57:02;8.90;72.00
13093;DHT22;6612;49.568;11.000;2024-03-22T01:59:30;8.80;72.00
13093;DHT22;6612;49.568;11.000;2024-03-22T02:01:59;8.80;72.00
13093;DHT22;6612;49.568;11.000;2024-03-22T02:04:28;8.70;72.00
13093;DHT22;6612;49.568;11.000;2024-03-22T02:06:54;8.70;72.00
13093;DHT22;6612;49.568;11.000;2024-03-22T02:09:22;8.70;72.10
13093;DHT22;6612;49.568;11.000;2024-03-22T02:11:48;8.70;72.10
13093;DHT22;6612;49.568;11.000;2024-03-22T02:14:16;8.70;72.10
13093;DHT22;6612;49.568;11.000;2024-03-22T02:16:42;8.60;72.00
13093;DHT22;6612;49.568;11.000;2024-03-22T02:19:12;8.60;72.10
13093;DHT22;6612;49.568;11.000;2024-03-22T02:21:38;8.60;72.10
13093;DHT22;6612;49.568;11.000;2024-03-22T02:24:07;8.60;72.10
13093;DHT22;6612;49.568;11.000;2024-03-22T02:26:33;8.50;72.10
13093;DHT22;6612;49.568;11.000;2024-03-22T02:29:01;8.50;72.00
13093;DHT22;6612;49.568;11.000;2024-03-22T02:31:27;8.50;72.00
13093;DHT22;6612;49.568;11.000;2024-03-22T02:33:54;8.40;71.90
13093;DHT22;6612;49.568;11.000;2024-03-22T02:36:20;8.40;71.90
13093;DHT22;6612;49.568;11.000;2024-03-22T02:38:47;8.40;71.90
13093;DHT22;6612;49.568;11.000;2024-03-22T02:41:15;8.40;71.90
13093;DHT22;6612;49.568;11.000;2024-03-22T02:43:42;8.30;71.90
13093;DHT22;6612;49.568;11.000;2024-03-22T02:46:08;8.30;71.90
13093;DHT22;6612;49.568;11.000;2024-03-22T02:48:36;8.30;72.00
13093;DHT22;6612;49.568;11.000;2024-03-22T02:51:02;8.30;72.00
13093;DHT22;6612;49.568;11.000;2024-03-22T02:53:29;8.20;72.00
13093;DHT22;6612;49.568;11.000;2024-03-22T02:55:55;8.20;72.10
13093;DHT22;6612;49.568;11.000;2024-03-22T02:58:24;8.20;72.20
13093;DHT22;6612;49.568;11.000;2024-03-22T03:00:50;8.20;72.20
13093;DHT22;6612;49.568;11.000;2024-03-22T03:03:18;8.20;72.20
13093;DHT22;6612;49.568;11.000;2024-03-22T03:05:44;8.10;72.20
13093;DHT22;6612;49.568;11.000;2024-03-22T03:08:11;8.10;72.20
13093;DHT22;6612;49.568;11.000;2024-03-22T03:10:37;8.10;72.20
13093;DHT22;6612;49.568;11.000;2024-03-22T03:13:05;8.10;72.00
13093;DHT22;6612;49.568;11.000;2024-03-22T03:15:32;8.10;72.00
13093;DHT22;6612;49.568;11.000;2024-03-22T03:17:59;8.00;71.90
13093;DHT22;6612;49.568;11.000;2024-03-22T03:20:26;8.00;72.00
13093;DHT22;6612;49.568;11.000;2024-03-22T03:22:53;8.00;72.00
13093;DHT22;6612;49.568;11.000;2024-03-22T03:25:19;8.00;72.10
13093;DHT22;6612;49.568;11.000;2024-03-22T03:27:46;7.90;72.10
13093;DHT22;6612;49.568;11.000;2024-03-22T03:30:13;7.90;72.10
13093;DHT22;6612;49.568;11.000;2024-03-22T03:32:41;7.90;72.10
13093;DHT22;6612;49.568;11.000;2024-03-22T03:35:08;7.90;72.00
13093;DHT22;6612;49.568;11.000;2024-03-22T03:37:35;7.80;72.00
13093;DHT22;6612;49.568;11.000;2024-03-22T03:40:01;7.80;72.00
13093;DHT22;6612;49.568;11.000;2024-03-22T03:42:30;7.80;72.10
13093;DHT22;6612;49.568;11.000;2024-03-22T03:44:56;7.80;72.20
13093;DHT22;6612;49.568;11.000;2024-03-22T03:47:23;7.80;72.20
13093;DHT22;6612;49.568;11.000;2024-03-22T03:49:51;7.80;72.30
13093;DHT22;6612;49.568;11.000;2024-03-22T03:52:18;7.80;72.50
13093;DHT22;6612;49.568;11.000;2024-03-22T03:54:44;7.70;72.50
13093;DHT22;6612;49.568;11.000;2024-03-22T03:57:12;7.70;72.60
13093;DHT22;6612;49.568;11.000;2024-03-22T03:59:38;7.70;72.70
13093;DHT22;6612;49.568;11.000;2024-03-22T04:02:05;7.70;72.90
13093;DHT22;6612;49.568;11.000;2024-03-22T04:04:31;7.70;72.90
13093;DHT22;6612;49.568;11.000;2024-03-22T04:07:00;7.70;73.10
13093;DHT22;6612;49.568;11.000;2024-03-22T04:09:26;7.70;73.20
13093;DHT22;6612;49.568;11.000;2024-03-22T04:11:53;7.70;73.20
13093;DHT22;6612;49.568;11.000;2024-03-22T04:14:20;7.70;73.30
13093;DHT22;6612;49.568;11.000;2024-03-22T04:16:47;7.70;73.30
13093;DHT22;6612;49.568;11.000;2024-03-22T04:19:13;7.70;73.20
13093;DHT22;6612;49.568;11.000;2024-03-22T04:21:40;7.70;73.10
13093;DHT22;6612;49.568;11.000;2024-03-22T04:24:08;7.70;73.00
13093;DHT22;6612;49.568;11.000;2024-03-22T04:26:35;7.70;72.90
13093;DHT22;6612;49.568;11.000;2024-03-22T04:29:02;7.70;72.80
13093;DHT22;6612;49.568;11.000;2024-03-22T04:31:29;7.70;72.80
13093;DHT22;6612;49.568;11.000;2024-03-22T04:33:56;7.70;72.90
13093;DHT22;6612;49.568;11.000;2024-03-22T04:36:23;7.70;73.00
13093;DHT22;6612;49.568;11.000;2024-03-22T04:38:49;7.70;73.10
13093;DHT22;6612;49.568;11.000;2024-03-22T04:41:18;7.70;73.20
13093;DHT22;6612;49.568;11.000;2024-03-22T04:43:45;7.60;73.10
13093;DHT22;6612;49.568;11.000;2024-03-22T04:46:13;7.60;73.00
13093;DHT22;6612;49.568;11.000;2024-03-22T04:48:40;7.60;72.90
13093;DHT22;6612;49.568;11.000;2024-03-22T04:51:06;7.60;72.80
13093;DHT22;6612;49.568;11.000;2024-03-22T04:53:33;7.60;72.70
13093;DHT22;6612;49.568;11.000;2024-03-22T04:55:59;7.60;72.50
13093;DHT22;6612;49.568;11.000;2024-03-22T04:58:28;7.60;72.30
13093;DHT22;6612;49.568;11.000;2024-03-22T05:00:57;7.50;72.50
13093;DHT22;6612;49.568;11.000;2024-03-22T05:03:24;7.50;72.00
13093;DHT22;6612;49.568;11.000;2024-03-22T05:05:51;7.50;72.00
13093;DHT22;6612;49.568;11.000;2024-03-22T05:08:18;7.40;72.00
13093;DHT22;6612;49.568;11.000;2024-03-22T05:10:44;7.40;72.00
13093;DHT22;6612;49.568;11.000;2024-03-22T05:13:11;7.40;72.10
13093;DHT22;6612;49.568;11.000;2024-03-22T05:15:39;7.40;72.20
13093;DHT22;6612;49.568;11.000;2024-03-22T05:18:06;7.30;72.10
13093;DHT22;6612;49.568;11.000;2024-03-22T05:20:32;7.30;72.10
13093;DHT22;6612;49.568;11.000;2024-03-22T05:23:00;7.30;72.20
13093;DHT22;6612;49.568;11.000;2024-03-22T05:25:26;7.30;72.20
13093;DHT22;6612;49.568;11.000;2024-03-22T05:27:53;7.30;72.30
13093;DHT22;6612;49.568;11.000;2024-03-22T05:30:19;7.20;72.30
13093;DHT22;6612;49.568;11.000;2024-03-22T05:32:48;7.20;72.50
13093;DHT22;6612;49.568;11.000;2024-03-22T05:35:16;7.20;72.70
13093;DHT22;6612;49.568;11.000;2024-03-22T05:37:44;7.20;72.90
13093;DHT22;6612;49.568;11.000;2024-03-22T05:40:11;7.20;73.20
13093;DHT22;6612;49.568;11.000;2024-03-22T05:42:38;7.20;74.40
13093;DHT22;6612;49.568;11.000;2024-03-22T05:45:05;7.30;74.10
13093;DHT22;6612;49.568;11.000;2024-03-22T05:47:33;7.30;74.50
13093;DHT22;6612;49.568;11.000;2024-03-22T05:50:00;7.30;74.90
13093;DHT22;6612;49.568;11.000;2024-03-22T05:52:31;7.40;75.40
13093;DHT22;6612;49.568;11.000;2024-03-22T05:54:58;7.40;75.80
13093;DHT22;6612;49.568;11.000;2024-03-22T05:57:24;7.50;76.20
13093;DHT22;6612;49.568;11.000;2024-03-22T05:59:51;7.60;76.50
13093;DHT22;6612;49.568;11.000;2024-03-22T06:02:19;7.60;76.60
13093;DHT22;6612;49.568;11.000;2024-03-22T06:04:46;7.70;77.40
13093;DHT22;6612;49.568;11.000;2024-03-22T06:07:14;7.80;77.60
13093;DHT22;6612;49.568;11.000;2024-03-22T06:09:42;7.90;78.40
13093;DHT22;6612;49.568;11.000;2024-03-22T06:12:12;8.00;79.40
13093;DHT22;6612;49.568;11.000;2024-03-22T06:14:40;8.20;80.50
13093;DHT22;6612;49.568;11.000;2024-03-22T06:17:06;8.40;82.40
13093;DHT22;6612;49.568;11.000;2024-03-22T06:19:34;8.60;85.60
13093;DHT22;6612;49.568;11.000;2024-03-22T06:22:00;9.10;89.40
13093;DHT22;6612;49.568;11.000;2024-03-22T06:24:32;9.60;91.10
13093;DHT22;6612;49.568;11.000;2024-03-22T06:26:58;10.10;91.60
13093;DHT22;6612;49.568;11.000;2024-03-22T06:29:26;10.60;91.10
13093;DHT22;6612;49.568;11.000;2024-03-22T06:31:52;11.00;89.30
13093;DHT22;6612;49.568;11.000;2024-03-22T06:34:19;11.30;86.60
13093;DHT22;6612;49.568;11.000;2024-03-22T06:36:45;11.50;84.30
13093;DHT22;6612;49.568;11.000;2024-03-22T06:39:13;11.60;82.50
13093;DHT22;6612;49.568;11.000;2024-03-22T06:41:41;11.80;81.20
13093;DHT22;6612;49.568;11.000;2024-03-22T06:44:09;11.80;80.10
13093;DHT22;6612;49.568;11.000;2024-03-22T06:46:37;11.80;79.60
13093;DHT22;6612;49.568;11.000;2024-03-22T06:49:05;11.90;79.00
13093;DHT22;6612;49.568;11.000;2024-03-22T06:51:31;11.90;78.50
13093;DHT22;6612;49.568;11.000;2024-03-22T06:53:58;11.90;77.90
13093;DHT22;6612;49.568;11.000;2024-03-22T06:56:24;11.90;77.50
13093;DHT22;6612;49.568;11.000;2024-03-22T06:58:53;11.90;76.60
13093;DHT22;6612;49.568;11.000;2024-03-22T07:01:19;11.80;75.80
13093;DHT22;6612;49.568;11.000;2024-03-22T07:03:46;11.80;75.60
13093;DHT22;6612;49.568;11.000;2024-03-22T07:06:14;11.80;75.90
13093;DHT22;6612;49.568;11.000;2024-03-22T07:08:41;11.70;75.70
13093;DHT22;6612;49.568;11.000;2024-03-22T07:11:07;11.70;76.20
13093;DHT22;6612;49.568;11.000;2024-03-22T07:13:34;11.70;76.30
13093;DHT22;6612;49.568;11.000;2024-03-22T07:16:04;11.70;76.50
13093;DHT22;6612;49.568;11.000;2024-03-22T07:18:31;11.70;76.30
13093;DHT22;6612;49.568;11.000;2024-03-22T07:20:58;11.70;77.00
13093;DHT22;6612;49.568;11.000;2024-03-22T07:23:27;11.70;77.10
13093;DHT22;6612;49.568;11.000;2024-03-22T07:25:54;11.80;77.30
13093;DHT22;6612;49.568;11.000;2024-03-22T07:28:20;11.80;77.30
13093;DHT22;6612;49.568;11.000;2024-03-22T07:30:48;11.80;77.00
13093;DHT22;6612;49.568;11.000;2024-03-22T07:33:15;11.80;77.10
13093;DHT22;6612;49.568;11.000;2024-03-22T07:35:44;11.80;77.10
13093;DHT22;6612;49.568;11.000;2024-03-22T07:38:10;11.90;77.50
13093;DHT22;6612;49.568;11.000;2024-03-22T07:40:37;11.90;77.60
13093;DHT22;6612;49.568;11.000;2024-03-22T07:43:04;11.90;77.50
13093;DHT22;6612;49.568;11.000;2024-03-22T07:45:34;12.00;77.40
13093;DHT22;6612;49.568;11.000;2024-03-22T07:48:00;12.00;77.40
13093;DHT22;6612;49.568;11.000;2024-03-22T07:50:29;12.10;77.70
13093;DHT22;6612;49.568;11.000;2024-03-22T07:52:55;12.10;77.50
13093;DHT22;6612;49.568;11.000;2024-03-22T07:55:22;12.10;77.90
13093;DHT22;6612;49.568;11.000;2024-03-22T07:57:49;12.10;77.80
13093;DHT22;6612;49.568;11.000;2024-03-22T08:00:16;12.20;77.80
13093;DHT22;6612;49.568;11.000;2024-03-22T08:02:43;12.30;77.20
13093;DHT22;6612;49.568;11.000;2024-03-22T08:05:10;12.30;77.40
13093;DHT22;6612;49.568;11.000;2024-03-22T08:07:37;12.40;78.10
13093;DHT22;6612;49.568;11.000;2024-03-22T08:10:05;12.50;78.30
13093;DHT22;6612;49.568;11.000;2024-03-22T08:12:32;12.50;79.00
13093;DHT22;6612;49.568;11.000;2024-03-22T08:14:59;12.60;79.00
13093;DHT22;6612;49.568;11.000;2024-03-22T08:17:25;12.70;78.50
13093;DHT22;6612;49.568;11.000;2024-03-22T08:19:52;12.80;78.80
13093;DHT22;6612;49.568;11.000;2024-03-22T08:22:19;12.90;79.00
13093;DHT22;6612;49.568;11.000;2024-03-22T08:24:48;13.00;79.30
13093;DHT22;6612;49.568;11.000;2024-03-22T08:27:14;13.10;79.00
13093;DHT22;6612;49.568;11.000;2024-03-22T08:29:41;13.20;80.00
13093;DHT22;6612;49.568;11.000;2024-03-22T08:32:08;13.30;79.90
13093;DHT22;6612;49.568;11.000;2024-03-22T08:34:35;13.50;80.10
13093;DHT22;6612;49.568;11.000;2024-03-22T08:37:01;13.60;81.60
13093;DHT22;6612;49.568;11.000;2024-03-22T08:39:29;13.90;83.30
13093;DHT22;6612;49.568;11.000;2024-03-22T08:41:57;14.10;83.60
13093;DHT22;6612;49.568;11.000;2024-03-22T08:44:24;14.30;83.70
13093;DHT22;6612;49.568;11.000;2024-03-22T08:46:50;14.60;82.60
13093;DHT22;6612;49.568;11.000;2024-03-22T08:49:18;14.70;81.70
13093;DHT22;6612;49.568;11.000;2024-03-22T08:51:45;14.90;81.80
13093;DHT22;6612;49.568;11.000;2024-03-22T08:54:14;15.00;81.80
13093;DHT22;6612;49.568;11.000;2024-03-22T08:56:40;15.20;82.90
13093;DHT22;6612;49.568;11.000;2024-03-22T08:59:09;15.50;84.60
13093;DHT22;6612;49.568;11.000;2024-03-22T09:01:36;15.70;84.00
13093;DHT22;6612;49.568;11.000;2024-03-22T09:04:04;16.10;83.80
13093;DHT22;6612;49.568;11.000;2024-03-22T09:06:30;16.60;85.30
13093;DHT22;6612;49.568;11.000;2024-03-22T09:08:58;16.90;86.10
13093;DHT22;6612;49.568;11.000;2024-03-22T09:11:24;17.20;86.90
13093;DHT22;6612;49.568;11.000;2024-03-22T09:13:52;17.60;87.90
13093;DHT22;6612;49.568;11.000;2024-03-22T09:16:20;18.00;85.20
13093;DHT22;6612;49.568;11.000;2024-03-22T09:18:47;18.30;81.90
13093;DHT22;6612;49.568;11.000;2024-03-22T09:21:14;18.50;81.30
13093;DHT22;6612;49.568;11.000;2024-03-22T09:23:41;18.70;79.30
13093;DHT22;6612;49.568;11.000;2024-03-22T09:26:07;18.70;77.40
13093;DHT22;6612;49.568;11.000;2024-03-22T09:28:35;18.80;76.50
13093;DHT22;6612;49.568;11.000;2024-03-22T09:31:04;18.80;74.60
13093;DHT22;6612;49.568;11.000;2024-03-22T09:33:34;18.80;75.00
13093;DHT22;6612;49.568;11.000;2024-03-22T09:36:02;18.90;76.10
13093;DHT22;6612;49.568;11.000;2024-03-22T09:38:30;18.90;78.10
13093;DHT22;6612;49.568;11.000;2024-03-22T09:40:56;19.10;79.30
13093;DHT22;6612;49.568;11.000;2024-03-22T09:43:24;19.20;80.00
13093;DHT22;6612;49.568;11.000;2024-03-22T09:45:53;19.30;80.10
13093;DHT22;6612;49.568;11.000;2024-03-22T09:48:20;19.40;78.70
13093;DHT22;6612;49.568;11.000;2024-03-22T09:50:48;19.40;79.50
13093;DHT22;6612;49.568;11.000;2024-03-22T09:53:19;19.50;77.80
13093;DHT22;6612;49.568;11.000;2024-03-22T09:55:47;19.50;77.40
13093;DHT22;6612;49.568;11.000;2024-03-22T09:58:15;19.60;75.80
13093;DHT22;6612;49.568;11.000;2024-03-22T10:00:43;19.60;76.90
13093;DHT22;6612;49.568;11.000;2024-03-22T10:03:11;19.70;77.60
13093;DHT22;6612;49.568;11.000;2024-03-22T10:05:37;19.80;77.90
13093;DHT22;6612;49.568;11.000;2024-03-22T10:08:06;19.90;78.20
13093;DHT22;6612;49.568;11.000;2024-03-22T10:10:33;20.10;78.70
13093;DHT22;6612;49.568;11.000;2024-03-22T10:13:01;20.20;78.50
13093;DHT22;6612;49.568;11.000;2024-03-22T10:15:27;20.40;78.40
13093;DHT22;6612;49.568;11.000;2024-03-22T10:17:57;20.60;78.50
13093;DHT22;6612;49.568;11.000;2024-03-22T10:20:23;20.80;78.10
13093;DHT22;6612;49.568;11.000;2024-03-22T10:22:55;20.90;78.20
13093;DHT22;6612;49.568;11.000;2024-03-22T10:25:23;21.00;75.20
13093;DHT22;6612;49.568;11.000;2024-03-22T10:27:51;21.10;74.80
13093;DHT22;6612;49.568;11.000;2024-03-22T10:30:17;21.20;76.50
13093;DHT22;6612;49.568;11.000;2024-03-22T10:32:44;21.40;78.10
13093;DHT22;6612;49.568;11.000;2024-03-22T10:35:12;21.60;78.10
13093;DHT22;6612;49.568;11.000;2024-03-22T10:37:39;21.80;78.10
13093;DHT22;6612;49.568;11.000;2024-03-22T10:40:07;22.00;78.70
13093;DHT22;6612;49.568;11.000;2024-03-22T10:42:37;22.30;78.40
13093;DHT22;6612;49.568;11.000;2024-03-22T10:45:04;22.50;75.60
13093;DHT22;6612;49.568;11.000;2024-03-22T10:47:33;22.70;77.50
13093;DHT22;6612;49.568;11.000;2024-03-22T10:50:03;22.90;74.80
13093;DHT22;6612;49.568;11.000;2024-03-22T10:52:33;23.10;74.50
13093;DHT22;6612;49.568;11.000;2024-03-22T10:55:01;23.20;72.00
13093;DHT22;6612;49.568;11.000;2024-03-22T10:57:31;23.20;69.40
13093;DHT22;6612;49.568;11.000;2024-03-22T11:00:04;23.20;69.80
13093;DHT22;6612;49.568;11.000;2024-03-22T11:02:36;23.20;69.90
13093;DHT22;6612;49.568;11.000;2024-03-22T11:05:02;23.20;70.40
13093;DHT22;6612;49.568;11.000;2024-03-22T11:07:30;23.20;70.60
13093;DHT22;6612;49.568;11.000;2024-03-22T11:09:56;23.20;70.80
13093;DHT22;6612;49.568;11.000;2024-03-22T11:12:25;23.10;70.90
13093;DHT22;6612;49.568;11.000;2024-03-22T11:14:53;23.10;70.00
13093;DHT22;6612;49.568;11.000;2024-03-22T11:17:21;23.20;70.20
13093;DHT22;6612;49.568;11.000;2024-03-22T11:19:50;23.20;69.90
13093;DHT22;6612;49.568;11.000;2024-03-22T11:22:18;23.20;70.70
13093;DHT22;6612;49.568;11.000;2024-03-22T11:24:44;23.20;69.90
13093;DHT22;6612;49.568;11.000;2024-03-22T11:27:11;23.20;70.00
13093;DHT22;6612;49.568;11.000;2024-03-22T11:29:38;23.20;69.60
13093;DHT22;6612;49.568;11.000;2024-03-22T11:32:07;23.20;69.00
13093;DHT22;6612;49.568;11.000;2024-03-22T11:34:36;23.20;68.70
13093;DHT22;6612;49.568;11.000;2024-03-22T11:39:30;23.20;67.50
13093;DHT22;6612;49.568;11.000;2024-03-22T11:41:58;23.10;67.70
13093;DHT22;6612;49.568;11.000;2024-03-22T11:44:24;23.10;67.40
13093;DHT22;6612;49.568;11.000;2024-03-22T11:46:52;23.10;67.50
13093;DHT22;6612;49.568;11.000;2024-03-22T11:49:19;23.00;66.40
13093;DHT22;6612;49.568;11.000;2024-03-22T11:51:47;23.00;66.30
13093;DHT22;6612;49.568;11.000;2024-03-22T11:54:14;23.00;64.20
13093;DHT22;6612;49.568;11.000;2024-03-22T11:56:41;22.90;65.20
13093;DHT22;6612;49.568;11.000;2024-03-22T11:59:07;22.90;64.90
13093;DHT22;6612;49.568;11.000;2024-03-22T12:01:34;22.90;65.40
13093;DHT22;6612;49.568;11.000;2024-03-22T12:04:01;22.80;65.90
13093;DHT22;6612;49.568;11.000;2024-03-22T12:06:28;22.90;66.30
13093;DHT22;6612;49.568;11.000;2024-03-22T12:08:56;22.90;65.80
13093;DHT22;6612;49.568;11.000;2024-03-22T12:11:23;22.90;64.90
13093;DHT22;6612;49.568;11.000;2024-03-22T12:13:49;22.90;65.70
13093;DHT22;6612;49.568;11.000;2024-03-22T12:16:16;22.90;65.00
13093;DHT22;6612;49.568;11.000;2024-03-22T12:18:42;22.90;64.90
13093;DHT22;6612;49.568;11.000;2024-03-22T12:21:10;22.90;63.70
13093;DHT22;6612;49.568;11.000;2024-03-22T12:23:36;22.90;63.60
13093;DHT22;6612;49.568;11.000;2024-03-22T12:26:05;22.90;63.90
13093;DHT22;6612;49.568;11.000;2024-03-22T12:28:32;22.80;63.40
13093;DHT22;6612;49.568;11.000;2024-03-22T12:30:59;22.80;62.60
13093;DHT22;6612;49.568;11.000;2024-03-22T12:33:26;22.80;62.90
13093;DHT22;6612;49.568;11.000;2024-03-22T12:35:53;22.80;63.10
13093;DHT22;6612;49.568;11.000;2024-03-22T12:38:19;22.80;62.80
13093;DHT22;6612;49.568;11.000;2024-03-22T12:40:46;22.80;62.60
13093;DHT22;6612;49.568;11.000;2024-03-22T12:43:14;22.80;63.60
13093;DHT22;6612;49.568;11.000;2024-03-22T12:45:41;22.80;62.50
13093;DHT22;6612;49.568;11.000;2024-03-22T12:48:07;22.80;63.30
13093;DHT22;6612;49.568;11.000;2024-03-22T12:50:35;22.90;63.20
13093;DHT22;6612;49.568;11.000;2024-03-22T12:53:01;22.90;62.50
13093;DHT22;6612;49.568;11.000;2024-03-22T12:55:29;23.00;63.20
13093;DHT22;6612;49.568;11.000;2024-03-22T12:57:57;23.00;62.80
13093;DHT22;6612;49.568;11.000;2024-03-22T13:00:25;23.20;62.80
13093;DHT22;6612;49.568;11.000;2024-03-22T13:02:52;23.20;62.30
13093;DHT22;6612;49.568;11.000;2024-03-22T13:05:19;23.30;62.50
13093;DHT22;6612;49.568;11.000;2024-03-22T13:07:45;23.40;62.10
13093;DHT22;6612;49.568;11.000;2024-03-22T13:10:13;23.50;62.20
13093;DHT22;6612;49.568;11.000;2024-03-22T13:12:39;23.50;61.30
13093;DHT22;6612;49.568;11.000;2024-03-22T13:15:07;23.60;61.60
13093;DHT22;6612;49.568;11.000;2024-03-22T13:17:34;23.60;61.10
13093;DHT22;6612;49.568;11.000;2024-03-22T13:20:02;23.60;60.10
13093;DHT22;6612;49.568;11.000;2024-03-22T13:22:31;23.60;61.00
13093;DHT22;6612;49.568;11.000;2024-03-22T13:24:58;23.70;60.90
13093;DHT22;6612;49.568;11.000;2024-03-22T13:27:24;23.70;60.70
13093;DHT22;6612;49.568;11.000;2024-03-22T13:29:52;23.70;60.20
13093;DHT22;6612;49.568;11.000;2024-03-22T13:32:18;23.80;60.00
13093;DHT22;6612;49.568;11.000;2024-03-22T13:34:47;23.80;60.10
13093;DHT22;6612;49.568;11.000;2024-03-22T13:37:13;23.80;59.70
13093;DHT22;6612;49.568;11.000;2024-03-22T13:39:41;23.90;60.20
13093;DHT22;6612;49.568;11.000;2024-03-22T13:42:07;23.90;59.50
13093;DHT22;6612;49.568;11.000;2024-03-22T13:44:35;23.90;59.40
13093;DHT22;6612;49.568;11.000;2024-03-22T13:47:01;23.90;58.70
13093;DHT22;6612;49.568;11.000;2024-03-22T13:49:30;23.90;58.90
13093;DHT22;6612;49.568;11.000;2024-03-22T13:51:59;23.80;59.00
13093;DHT22;6612;49.568;11.000;2024-03-22T13:54:26;23.80;58.40
13093;DHT22;6612;49.568;11.000;2024-03-22T13:56:53;23.80;59.50
13093;DHT22;6612;49.568;11.000;2024-03-22T13:59:20;23.80;59.40
13093;DHT22;6612;49.568;11.000;2024-03-22T14:01:46;23.80;59.60
13093;DHT22;6612;49.568;11.000;2024-03-22T14:04:13;23.90;59.40
13093;DHT22;6612;49.568;11.000;2024-03-22T14:06:41;23.90;59.30
13093;DHT22;6612;49.568;11.000;2024-03-22T14:09:10;23.90;58.50
13093;DHT22;6612;49.568;11.000;2024-03-22T14:11:38;23.90;58.30
13093;DHT22;6612;49.568;11.000;2024-03-22T14:14:07;23.90;57.80
13093;DHT22;6612;49.568;11.000;2024-03-22T14:16:33;23.80;57.80
13093;DHT22;6612;49.568;11.000;2024-03-22T14:19:02;23.80;56.90
13093;DHT22;6612;49.568;11.000;2024-03-22T14:21:28;23.80;56.90
13093;DHT22;6612;49.568;11.000;2024-03-22T14:23:55;23.70;57.10
13093;DHT22;6612;49.568;11.000;2024-03-22T14:26:23;23.70;57.20
13093;DHT22;6612;49.568;11.000;2024-03-22T14:28:51;23.60;56.60
13093;DHT22;6612;49.568;11.000;2024-03-22T14:31:18;23.50;56.80
13093;DHT22;6612;49.568;11.000;2024-03-22T14:33:46;23.50;56.70
13093;DHT22;6612;49.568;11.000;2024-03-22T14:36:12;23.50;56.10
13093;DHT22;6612;49.568;11.000;2024-03-22T14:38:39;23.40;55.90
13093;DHT22;6612;49.568;11.000;2024-03-22T14:41:06;23.30;55.70
13093;DHT22;6612;49.568;11.000;2024-03-22T14:43:34;23.30;56.10
13093;DHT22;6612;49.568;11.000;2024-03-22T14:46:01;23.20;55.70
13093;DHT22;6612;49.568;11.000;2024-03-22T14:48:29;23.20;56.00
13093;DHT22;6612;49.568;11.000;2024-03-22T14:50:55;23.10;55.80
13093;DHT22;6612;49.568;11.000;2024-03-22T14:53:24;23.10;56.20
13093;DHT22;6612;49.568;11.000;2024-03-22T14:55:53;23.00;56.10
13093;DHT22;6612;49.568;11.000;2024-03-22T14:58:23;23.00;55.30
13093;DHT22;6612;49.568;11.000;2024-03-22T15:00:55;23.00;55.80
13093;DHT22;6612;49.568;11.000;2024-03-22T15:03:22;22.90;54.50
13093;DHT22;6612;49.568;11.000;2024-03-22T15:05:50;22.90;55.40
13093;DHT22;6612;49.568;11.000;2024-03-22T15:08:17;22.90;55.50
13093;DHT22;6612;49.568;11.000;2024-03-22T15:10:44;22.80;55.90
13093;DHT22;6612;49.568;11.000;2024-03-22T15:13:12;22.80;55.50
13093;DHT22;6612;49.568;11.000;2024-03-22T15:15:39;22.80;55.30
13093;DHT22;6612;49.568;11.000;2024-03-22T15:18:08;22.70;55.40
13093;DHT22;6612;49.568;11.000;2024-03-22T15:20:36;22.70;54.70
13093;DHT22;6612;49.568;11.000;2024-03-22T15:23:03;22.60;54.80
13093;DHT22;6612;49.568;11.000;2024-03-22T15:25:30;22.60;54.90
13093;DHT22;6612;49.568;11.000;2024-03-22T15:27:57;22.50;54.40
13093;DHT22;6612;49.568;11.000;2024-03-22T15:30:24;22.40;54.50
13093;DHT22;6612;49.568;11.000;2024-03-22T15:32:50;22.40;54.70
13093;DHT22;6612;49.568;11.000;2024-03-22T15:35:22;22.30;54.40
13093;DHT22;6612;49.568;11.000;2024-03-22T15:37:48;22.30;54.70
13093;DHT22;6612;49.568;11.000;2024-03-22T15:40:16;22.30;55.00